Baltimore, MD

2:29 PM EDT on August 28, 2015 (GMT -0400)
Ingleside & Woodsdale Catonsville | | Change Station
CLOSE
Current Station
Personal Weather Station
Location: Catonsville, MD
Elevation: 485 ft
Nearby Weather Stations

Elev 485 ft 39.28 °N, 76.73 °W | Updated 6 seconds ago

Partly Cloudy
Partly Cloudy
82.1 °F
Feels Like 83 °F
N
2.0
Wind Variable Wind from SSW
Gusts 4.0 mph

Today
High -- | Low -- °F
--% Chance of Precip.
Yesterday
High -- | Low -- °F
Precip. -- in
6:31 AM 7:44 PM
Waxing Gibbous, 98% visible
Pressure 30.18 in
Visibility 10.0 miles
Clouds Scattered Clouds 5500 ft
Heat Index 83 °F
Dew Point 62 °F
Humidity 50%
Rainfall 0.00 in
Snow Depth Not available.
UV 7 out of 12
Pollen 9.60 out of 12
Air Quality Not available.
Flu Activity Not available.
METAR KBWI 281754Z 00000KT 10SM SCT055 26/13 A3018 RMK AO2 SLP219 T02560128 10272 20172 58012
Pressure 30.18 in
Visibility 10.0 miles
Clouds Scattered Clouds 5500 ft
Heat Index 83 °F
Dew Point 62 °F
Humidity 50%
Rainfall 0.00 in
Snow Depth Not available.
UV 7 out of 12
Pollen 9.60 out of 12
Air Quality Not available.
Flu Activity Not available.
METAR KBWI 281754Z 00000KT 10SM SCT055 26/13 A3018 RMK AO2 SLP219 T02560128 10272 20172 58012

10-Day Weather Forecast

×

Almanac

Astronomy

Aug. 28, 2015 Rise Set
Actual Time
Civil Twilight
Nautical Twilight
Astronomical Twilight
Moon
Length of Visible Light
Length of Day
Tomorrow will be .
, % of the Moon is Illuminated

Today's Extremes

State Highs State Lows

Community

WunderPhotos

Upload Photos

1,850,453 photos uploaded!

WunderBlogs® & News

Nearby

Air Quality

  Air Quality AQ Index Pollutant
Not available.

Snow Depth

Station Depth Elevation

Earthquake Activity

City Distance Mag. Time & Date
Minimum magnitude displayed is 2.5.

Coastal Water Temperatures

Place Temperature

Stations

Nearby Weather Stations

Station Location Temp. Windchill Dew Point Humidity Wind Precip. Elev Updated Type